Time,TemperatureF,DewpointF,PressureIn,WindDirection,WindDirectionDegrees,WindSpeedMPH,WindSpeedGustMPH,Humidity,HourlyPrecipIn,Conditions,Clouds,dailyrainin,SoftwareType,DateUTC
2013-10-08 00:01:00,47.9,40.7,30.19,West,261,5.0,5.0,76,0.00,RA,,0.00,WeatherDisplay:10.37,2013-10-08 04:01:00,
2013-10-08 00:02:00,47.9,40.7,30.19,WSW,252,6.0,6.0,76,0.00,RA,,0.00,WeatherDisplay:10.37,2013-10-08 04:02:00,
2013-10-08 00:07:00,48.2,41.0,30.19,West,262,6.0,6.0,76,0.00,RA,,0.00,WeatherDisplay:10.37,2013-10-08 04:07:00,
2013-10-08 00:12:00,48.4,41.2,30.19,West,268,6.9,6.9,76,0.00,CLR,,0.00,WeatherDisplay:10.37,2013-10-08 04:12:00,
2013-10-08 00:17:00,48.6,41.4,30.19,West,263,3.5,3.5,76,0.00,CLR,,0.00,WeatherDisplay:10.37,2013-10-08 04:17:00,
2013-10-08 00:22:00,48.7,41.5,30.19,West,269,5.0,5.0,76,0.00,CLR,,0.00,WeatherDisplay:10.37,2013-10-08 04:22:00,
2013-10-08 00:27:00,48.8,41.6,30.19,West,271,5.0,5.0,76,0.00,CLR,,0.00,WeatherDisplay:10.37,2013-10-08 04:27:00,
2013-10-08 00:32:00,48.9,41.3,30.19,West,261,3.5,3.5,75,0.00,CLR,,0.00,WeatherDisplay:10.37,2013-10-08 04:32:00,
2013-10-08 00:37:00,48.9,41.3,30.19,WNW,286,1.0,0.0,75,0.00,CLR,,0.00,WeatherDisplay:10.37,2013-10-08 04:37:00,
2013-10-08 00:42:00,49.0,41.4,30.19,West,264,4.6,4.6,75,0.00,CLR,,0.00,WeatherDisplay:10.37,2013-10-08 04:42:00,
2013-10-08 00:47:00,49.0,41.4,30.19,West,260,3.5,3.5,75,0.00,CLR,,0.00,WeatherDisplay:10.37,2013-10-08 04:47:00,
2013-10-08 00:52:00,49.0,41.4,30.19,West,262,0.0,0.0,75,0.00,CLR,,0.00,WeatherDisplay:10.37,2013-10-08 04:52:00,
2013-10-08 00:57:00,49.0,41.4,30.20,WNW,287,2.3,2.3,75,0.00,CLR,,0.00,WeatherDisplay:10.37,2013-10-08 04:57:00,
2013-10-08 01:02:00,48.9,41.3,30.19,NW,309,2.3,2.3,75,0.00,CLR,,0.00,WeatherDisplay:10.37,2013-10-08 05:02:00,
2013-10-08 01:07:00,48.9,41.3,30.19,West,263,3.5,3.5,75,0.00,CLR,,0.00,WeatherDisplay:10.37,2013-10-08 05:07:00,
2013-10-08 01:12:00,48.8,41.2,30.19,West,281,4.0,4.0,75,0.00,CLR,,0.00,WeatherDisplay:10.37,2013-10-08 05:12:00,
2013-10-08 01:17:00,48.7,41.1,30.20,West,259,4.0,4.0,75,0.00,CLR,,0.00,WeatherDisplay:10.37,2013-10-08 05:17:00,
2013-10-08 01:22:00,48.7,41.1,30.20,West,263,4.0,4.0,75,0.00,CLR,,0.00,WeatherDisplay:10.37,2013-10-08 05:22:00,
2013-10-08 01:27:00,48.7,41.5,30.20,West,261,5.0,5.0,76,0.00,CLR,,0.00,WeatherDisplay:10.37,2013-10-08 05:27:00,
2013-10-08 01:32:00,48.7,41.5,30.20,West,263,6.0,6.0,76,0.00,CLR,,0.00,WeatherDisplay:10.37,2013-10-08 05:32:00,
2013-10-08 01:37:00,48.7,41.5,30.20,West,277,5.0,5.0,76,0.00,CLR,,0.00,WeatherDisplay:10.37,2013-10-08 05:37:00,
2013-10-08 01:42:00,48.7,41.5,30.20,West,267,5.0,5.0,76,0.00,CLR,,0.00,WeatherDisplay:10.37,2013-10-08 05:42:00,
2013-10-08 01:47:00,48.7,41.5,30.20,West,273,5.0,5.0,76,0.00,CLR,,0.00,WeatherDisplay:10.37,2013-10-08 05:47:00,
2013-10-08 01:52:00,48.7,41.5,30.20,West,275,2.3,0.0,76,0.00,CLR,,0.00,WeatherDisplay:10.37,2013-10-08 05:52:00,
2013-10-08 01:57:00,48.7,41.5,30.20,West,261,4.0,4.0,76,0.00,CLR,,0.00,WeatherDisplay:10.37,2013-10-08 05:57:00,
2013-10-08 02:02:00,48.6,41.4,30.21,WSW,250,3.0,3.0,76,0.00,CLR,,0.00,WeatherDisplay:10.37,2013-10-08 06:02:00,
2013-10-08 02:07:00,48.5,41.3,30.21,WSW,239,5.0,5.0,76,0.00,CLR,,0.00,WeatherDisplay:10.37,2013-10-08 06:07:00,
2013-10-08 02:12:00,48.4,41.2,30.21,WSW,239,3.0,3.0,76,0.00,CLR,,0.00,WeatherDisplay:10.37,2013-10-08 06:12:00,
2013-10-08 02:17:00,48.3,41.1,30.21,SW,232,3.5,3.5,76,0.00,CLR,,0.00,WeatherDisplay:10.37,2013-10-08 06:17:00,
2013-10-08 02:22:00,48.2,41.0,30.21,SW,232,3.5,3.5,76,0.00,CLR,,0.00,WeatherDisplay:10.37,2013-10-08 06:22:00,
2013-10-08 02:27:00,48.1,40.9,30.21,WSW,247,3.5,3.5,76,0.00,CLR,,0.00,WeatherDisplay:10.37,2013-10-08 06:27:00,
2013-10-08 02:32:00,48.0,40.8,30.21,WSW,256,4.0,4.0,76,0.00,CLR,,0.00,WeatherDisplay:10.37,2013-10-08 06:32:00,
2013-10-08 02:37:00,47.9,41.0,30.21,WSW,258,4.0,4.0,77,0.00,CLR,,0.00,WeatherDisplay:10.37,2013-10-08 06:37:00,
2013-10-08 02:42:00,47.9,41.0,30.21,West,271,3.5,3.5,77,0.00,CLR,,0.00,WeatherDisplay:10.37,2013-10-08 06:42:00,
2013-10-08 02:47:00,47.9,41.0,30.21,West,273,4.0,4.0,77,0.00,CLR,,0.00,WeatherDisplay:10.37,2013-10-08 06:47:00,
2013-10-08 02:52:00,48.0,41.5,30.22,West,276,1.2,0.0,78,0.00,CLR,,0.00,WeatherDisplay:10.37,2013-10-08 06:52:00,
2013-10-08 02:57:00,48.0,41.5,30.22,NW,306,1.2,0.0,78,0.00,CLR,,0.00,WeatherDisplay:10.37,2013-10-08 06:57:00,
2013-10-08 03:02:00,48.0,41.5,30.22,WNW,299,0.0,0.0,78,0.00,CLR,,0.00,WeatherDisplay:10.37,2013-10-08 07:02:00,
2013-10-08 03:07:00,48.1,41.6,30.22,WNW,300,0.0,0.0,78,0.00,CLR,,0.00,WeatherDisplay:10.37,2013-10-08 07:07:00,
2013-10-08 03:12:00,48.1,41.6,30.22,NW,313,2.3,2.3,78,0.00,CLR,,0.00,WeatherDisplay:10.37,2013-10-08 07:12:00,
2013-10-08 03:17:00,48.0,41.5,30.22,NW,313,0.0,0.0,78,0.00,CLR,,0.00,WeatherDisplay:10.37,2013-10-08 07:17:00,
2013-10-08 03:22:00,48.0,41.5,30.22,NW,313,0.0,0.0,78,0.00,CLR,,0.00,WeatherDisplay:10.37,2013-10-08 07:22:00,
2013-10-08 03:27:00,48.0,41.5,30.22,NW,313,0.0,0.0,78,0.00,CLR,,0.00,WeatherDisplay:10.37,2013-10-08 07:27:00,
2013-10-08 03:32:00,47.9,41.4,30.22,NW,313,0.0,0.0,78,0.00,CLR,,0.00,WeatherDisplay:10.37,2013-10-08 07:32:00,
2013-10-08 03:37:00,47.9,41.4,30.22,NW,313,0.0,0.0,78,0.00,CLR,,0.00,WeatherDisplay:10.37,2013-10-08 07:37:00,
2013-10-08 03:42:00,48.0,41.5,30.22,NW,313,0.0,0.0,78,0.00,CLR,,0.00,WeatherDisplay:10.37,2013-10-08 07:42:00,
2013-10-08 03:47:00,48.0,41.5,30.22,NW,313,1.0,0.0,78,0.00,CLR,,0.00,WeatherDisplay:10.37,2013-10-08 07:47:00,
2013-10-08 03:52:00,48.0,41.5,30.23,NW,318,2.0,2.0,78,0.00,CLR,,0.00,WeatherDisplay:10.37,2013-10-08 07:52:00,
2013-10-08 03:57:00,48.1,41.9,30.23,North,355,3.5,3.5,79,0.00,CLR,,0.00,WeatherDisplay:10.37,2013-10-08 07:57:00,
2013-10-08 04:02:00,48.1,41.9,30.23,North,10,3.5,3.5,79,0.00,CLR,,0.00,WeatherDisplay:10.37,2013-10-08 08:02:00,
2013-10-08 04:07:00,48.1,41.9,30.23,NNE,17,3.5,3.5,79,0.00,CLR,,0.00,WeatherDisplay:10.37,2013-10-08 08:07:00,
2013-10-08 04:12:00,48.0,41.8,30.23,NNE,17,4.0,4.0,79,0.00,CLR,,0.00,WeatherDisplay:10.37,2013-10-08 08:12:00,
2013-10-08 04:17:00,48.0,41.8,30.23,NNE,17,3.5,3.5,79,0.00,CLR,,0.00,WeatherDisplay:10.37,2013-10-08 08:17:00,
2013-10-08 04:22:00,47.9,41.7,30.23,NNE,24,5.0,5.0,79,0.00,CLR,,0.00,WeatherDisplay:10.37,2013-10-08 08:22:00,
2013-10-08 04:27:00,47.9,41.7,30.23,NNE,22,4.0,4.0,79,0.00,CLR,,0.00,WeatherDisplay:10.37,2013-10-08 08:27:00,
2013-10-08 04:32:00,47.9,41.7,30.23,NNE,19,3.5,3.5,79,0.00,CLR,,0.00,WeatherDisplay:10.37,2013-10-08 08:32:00,
2013-10-08 04:37:00,47.8,41.6,30.24,NNE,18,3.5,3.5,79,0.00,CLR,,0.00,WeatherDisplay:10.37,2013-10-08 08:37:00,
2013-10-08 04:42:00,47.8,41.6,30.24,NNE,14,4.0,4.0,79,0.00,CLR,,0.00,WeatherDisplay:10.37,2013-10-08 08:42:00,
2013-10-08 04:47:00,47.7,41.5,30.24,NNE,19,3.5,3.5,79,0.00,CLR,,0.00,WeatherDisplay:10.37,2013-10-08 08:47:00,
2013-10-08 04:52:00,47.7,41.5,30.24,NNE,20,5.0,5.0,79,0.00,CLR,,0.00,WeatherDisplay:10.37,2013-10-08 08:52:00,
2013-10-08 04:57:00,47.7,41.8,30.24,NNE,21,3.5,3.5,80,0.00,CLR,,0.00,WeatherDisplay:10.37,2013-10-08 08:57:00,
2013-10-08 05:02:00,47.6,41.7,30.24,NNE,21,3.5,3.5,80,0.00,CLR,,0.00,WeatherDisplay:10.37,2013-10-08 09:02:00,
2013-10-08 05:07:00,47.6,41.7,30.25,NNE,21,1.0,1.0,80,0.00,CLR,,0.00,WeatherDisplay:10.37,2013-10-08 09:07:00,
2013-10-08 05:12:00,47.5,41.6,30.25,NNE,21,2.3,2.3,80,0.00,CLR,,0.00,WeatherDisplay:10.37,2013-10-08 09:12:00,
2013-10-08 05:17:00,47.5,41.6,30.25,NNE,21,0.0,0.0,80,0.00,CLR,,0.00,WeatherDisplay:10.37,2013-10-08 09:17:00,
2013-10-08 05:22:00,47.4,41.5,30.26,NNE,21,0.0,0.0,80,0.00,CLR,,0.00,WeatherDisplay:10.37,2013-10-08 09:22:00,
2013-10-08 05:27:00,47.4,41.5,30.26,NNE,21,0.0,0.0,80,0.00,CLR,,0.00,WeatherDisplay:10.37,2013-10-08 09:27:00,
2013-10-08 05:32:00,47.4,41.5,30.26,NNE,21,0.0,0.0,80,0.00,CLR,,0.00,WeatherDisplay:10.37,2013-10-08 09:32:00,
2013-10-08 05:37:00,47.3,41.4,30.26,NNE,21,0.0,0.0,80,0.00,CLR,,0.00,WeatherDisplay:10.37,2013-10-08 09:37:00,
2013-10-08 05:42:00,47.3,41.4,30.26,NNE,21,3.5,3.5,80,0.00,CLR,,0.00,WeatherDisplay:10.37,2013-10-08 09:42:00,
2013-10-08 05:47:00,47.2,41.3,30.26,NNE,21,3.5,3.5,80,0.00,CLR,,0.00,WeatherDisplay:10.37,2013-10-08 09:47:00,
2013-10-08 05:52:00,47.2,41.3,30.26,NNE,21,1.2,1.2,80,0.00,CLR,,0.00,WeatherDisplay:10.37,2013-10-08 09:52:00,
2013-10-08 05:57:00,47.1,41.2,30.26,NNE,21,3.5,3.5,80,0.00,CLR,,0.00,WeatherDisplay:10.37,2013-10-08 09:57:00,
2013-10-08 06:02:00,47.0,41.5,30.27,NNE,21,1.2,1.2,81,0.00,CLR,,0.00,WeatherDisplay:10.37,2013-10-08 10:02:00,
2013-10-08 06:08:00,47.0,41.1,30.27,NNE,21,3.5,3.5,80,0.00,CLR,,0.00,WeatherDisplay:10.37,2013-10-08 10:08:00,
2013-10-08 06:13:00,46.9,41.4,30.27,NNE,21,3.5,3.5,81,0.00,CLR,,0.00,WeatherDisplay:10.37,2013-10-08 10:13:00,
2013-10-08 06:18:00,46.9,41.4,30.27,NNE,21,4.0,4.0,81,0.00,CLR,,0.00,WeatherDisplay:10.37,2013-10-08 10:18:00,
2013-10-08 06:23:00,46.9,41.4,30.27,NNE,21,1.0,0.0,81,0.00,CLR,,0.00,WeatherDisplay:10.37,2013-10-08 10:23:00,
2013-10-08 06:28:00,46.8,41.3,30.28,NNE,21,0.0,0.0,81,0.00,CLR,,0.00,WeatherDisplay:10.37,2013-10-08 10:28:00,
2013-10-08 06:33:00,46.7,41.2,30.28,NNE,21,0.0,0.0,81,0.00,CLR,,0.00,WeatherDisplay:10.37,2013-10-08 10:33:00,
2013-10-08 06:38:00,46.5,41.0,30.29,NNE,21,0.0,0.0,81,0.00,CLR,,0.00,WeatherDisplay:10.37,2013-10-08 10:38:00,
2013-10-08 06:43:00,46.3,40.5,30.29,NNE,21,0.0,0.0,80,0.00,CLR,,0.00,WeatherDisplay:10.37,2013-10-08 10:43:00,
2013-10-08 06:48:00,46.1,40.3,30.29,NNE,21,0.0,0.0,80,0.00,CLR,,0.00,WeatherDisplay:10.37,2013-10-08 10:48:00,
2013-10-08 06:53:00,46.1,40.3,30.29,NNE,21,0.0,0.0,80,0.00,CLR,,0.00,WeatherDisplay:10.37,2013-10-08 10:53:00,
2013-10-08 06:58:00,45.9,40.4,30.29,NNE,21,0.0,0.0,81,0.00,CLR,,0.00,WeatherDisplay:10.37,2013-10-08 10:58:00,
2013-10-08 07:03:00,45.8,40.3,30.30,NNE,21,0.0,0.0,81,0.00,CLR,,0.00,WeatherDisplay:10.37,2013-10-08 11:03:00,
2013-10-08 07:08:00,45.7,40.2,30.30,NNE,21,0.0,0.0,81,0.00,CLR,,0.00,WeatherDisplay:10.37,2013-10-08 11:08:00,
2013-10-08 07:13:00,45.6,40.1,30.30,NNE,21,0.0,0.0,81,0.00,CLR,,0.00,WeatherDisplay:10.37,2013-10-08 11:13:00,
2013-10-08 07:18:00,45.6,40.1,30.30,NNE,21,0.0,0.0,81,0.00,CLR,,0.00,WeatherDisplay:10.37,2013-10-08 11:18:00,
2013-10-08 07:23:00,45.6,40.1,30.31,NNE,21,0.0,0.0,81,0.00,CLR,,0.00,WeatherDisplay:10.37,2013-10-08 11:23:00,
2013-10-08 07:28:00,45.6,40.1,30.31,NNE,21,0.0,0.0,81,0.00,CLR,,0.00,WeatherDisplay:10.37,2013-10-08 11:28:00,
2013-10-08 07:33:00,45.5,40.0,30.31,NNE,21,0.0,0.0,81,0.00,CLR,,0.00,WeatherDisplay:10.37,2013-10-08 11:33:00,
2013-10-08 07:38:00,45.5,40.0,30.32,NNE,21,1.2,1.2,81,0.00,CLR,,0.00,WeatherDisplay:10.37,2013-10-08 11:38:00,
2013-10-08 07:43:00,45.3,39.8,30.32,NNE,21,0.0,0.0,81,0.00,CLR,,0.00,WeatherDisplay:10.37,2013-10-08 11:43:00,
2013-10-08 07:48:00,45.2,39.7,30.32,NNE,21,0.0,0.0,81,0.00,CLR,,0.00,WeatherDisplay:10.37,2013-10-08 11:48:00,
2013-10-08 07:53:00,45.1,39.9,30.32,NNE,21,0.0,0.0,82,0.00,CLR,,0.00,WeatherDisplay:10.37,2013-10-08 11:53:00,
2013-10-08 07:58:00,45.2,40.0,30.33,NNE,21,0.0,0.0,82,0.00,CLR,,0.00,WeatherDisplay:10.37,2013-10-08 11:58:00,
2013-10-08 08:03:00,45.2,40.0,30.33,NNE,21,0.0,0.0,82,0.00,CLR,,0.00,WeatherDisplay:10.37,2013-10-08 12:03:00,
2013-10-08 08:08:00,45.2,40.0,30.33,NNE,21,0.0,0.0,82,0.00,CLR,,0.00,WeatherDisplay:10.37,2013-10-08 12:08:00,
2013-10-08 08:13:00,45.5,40.6,30.33,NNE,21,0.0,0.0,83,0.00,CLR,,0.00,WeatherDisplay:10.37,2013-10-08 12:13:00,
2013-10-08 08:18:00,45.7,40.8,30.34,NNE,21,0.0,0.0,83,0.00,CLR,,0.00,WeatherDisplay:10.37,2013-10-08 12:18:00,
2013-10-08 08:23:00,45.9,41.0,30.34,NNE,21,0.0,0.0,83,0.00,CLR,,0.00,WeatherDisplay:10.37,2013-10-08 12:23:00,
2013-10-08 08:28:00,46.0,41.1,30.34,NNE,21,0.0,0.0,83,0.00,CLR,,0.00,WeatherDisplay:10.37,2013-10-08 12:28:00,
2013-10-08 08:33:00,46.2,41.3,30.34,NNE,21,0.0,0.0,83,0.00,CLR,,0.00,WeatherDisplay:10.37,2013-10-08 12:33:00,
2013-10-08 08:38:00,46.4,41.5,30.34,NNE,21,0.0,0.0,83,0.00,CLR,,0.00,WeatherDisplay:10.37,2013-10-08 12:38:00,
2013-10-08 08:43:00,46.6,42.0,30.35,NNE,21,0.0,0.0,84,0.00,CLR,,0.00,WeatherDisplay:10.37,2013-10-08 12:43:00,
2013-10-08 08:48:00,46.8,42.2,30.35,NNE,21,4.0,4.0,84,0.00,CLR,,0.00,WeatherDisplay:10.37,2013-10-08 12:48:00,
2013-10-08 08:53:00,47.0,42.1,30.35,SSW,196,4.0,4.0,83,0.00,CLR,,0.00,WeatherDisplay:10.37,2013-10-08 12:53:00,
2013-10-08 08:58:00,47.0,42.4,30.35,SSW,199,5.0,5.0,84,0.00,CLR,,0.00,WeatherDisplay:10.37,2013-10-08 12:58:00,
2013-10-08 09:03:00,46.9,42.0,30.35,SSW,196,5.0,5.0,83,0.00,CLR,,0.00,WeatherDisplay:10.37,2013-10-08 13:03:00,
2013-10-08 09:08:00,46.9,42.0,30.36,SSW,204,4.0,4.0,83,0.00,CLR,,0.00,WeatherDisplay:10.37,2013-10-08 13:08:00,
2013-10-08 09:13:00,46.9,42.0,30.36,SW,214,3.5,3.5,83,0.00,CLR,,0.00,WeatherDisplay:10.37,2013-10-08 13:13:00,
2013-10-08 09:18:00,47.0,42.1,30.36,SSW,200,4.0,4.0,83,0.00,CLR,,0.00,WeatherDisplay:10.37,2013-10-08 13:18:00,
2013-10-08 09:23:00,47.1,42.2,30.36,South,187,4.0,4.0,83,0.00,CLR,,0.00,WeatherDisplay:10.37,2013-10-08 13:23:00,
2013-10-08 09:28:00,47.2,42.3,30.36,SSW,205,3.5,3.5,83,0.00,CLR,,0.00,WeatherDisplay:10.37,2013-10-08 13:28:00,
2013-10-08 09:33:00,47.4,42.5,30.36,SSW,197,2.3,2.3,83,0.00,CLR,,0.00,WeatherDisplay:10.37,2013-10-08 13:33:00,
2013-10-08 09:38:00,47.7,43.1,30.36,SSW,198,3.5,3.5,84,0.00,CLR,,0.00,WeatherDisplay:10.37,2013-10-08 13:38:00,
2013-10-08 09:43:00,48.1,43.5,30.36,SSW,198,5.0,5.0,84,0.00,CLR,,0.00,WeatherDisplay:10.37,2013-10-08 13:43:00,
2013-10-08 09:48:00,48.4,43.8,30.36,South,191,4.0,4.0,84,0.00,CLR,,0.00,WeatherDisplay:10.37,2013-10-08 13:48:00,
2013-10-08 09:53:00,48.7,44.1,30.36,SW,226,2.3,2.3,84,0.00,CLR,,0.00,WeatherDisplay:10.37,2013-10-08 13:53:00,
2013-10-08 09:58:00,49.0,44.4,30.36,NE,53,1.0,1.0,84,0.00,CLR,,0.00,WeatherDisplay:10.37,2013-10-08 13:58:00,
2013-10-08 10:03:00,49.2,44.6,30.36,NNE,28,0.0,0.0,84,0.00,CLR,,0.00,WeatherDisplay:10.37,2013-10-08 14:03:00,
2013-10-08 10:08:00,49.5,44.9,30.36,South,187,4.0,4.0,84,0.00,CLR,,0.00,WeatherDisplay:10.37,2013-10-08 14:08:00,
2013-10-08 10:13:00,50.1,45.5,30.37,NE,42,1.2,1.2,84,0.00,CLR,,0.00,WeatherDisplay:10.37,2013-10-08 14:13:00,
2013-10-08 10:18:00,50.8,46.1,30.37,East,96,1.2,0.0,84,0.00,CLR,,0.00,WeatherDisplay:10.37,2013-10-08 14:18:00,
2013-10-08 10:23:00,51.6,46.9,30.36,NNE,26,3.5,3.5,84,0.00,CLR,,0.00,WeatherDisplay:10.37,2013-10-08 14:23:00,
2013-10-08 10:28:00,52.3,47.3,30.36,NNE,26,2.0,2.0,83,0.00,CLR,,0.00,WeatherDisplay:10.37,2013-10-08 14:28:00,
2013-10-08 10:33:00,53.1,47.7,30.37,NNE,12,3.5,3.5,82,0.00,CLR,,0.00,WeatherDisplay:10.37,2013-10-08 14:33:00,
2013-10-08 10:38:00,53.9,47.9,30.37,NE,36,3.5,3.5,80,0.00,CLR,,0.00,WeatherDisplay:10.37,2013-10-08 14:38:00,
2013-10-08 10:43:00,54.7,48.3,30.37,NE,36,0.0,0.0,79,0.00,CLR,,0.00,WeatherDisplay:10.37,2013-10-08 14:43:00,
2013-10-08 10:48:00,55.6,48.5,30.37,NE,53,2.3,2.3,77,0.00,CLR,,0.00,WeatherDisplay:10.37,2013-10-08 14:48:00,
2013-10-08 10:53:00,56.2,48.0,30.37,SSE,152,1.2,1.2,74,0.00,CLR,,0.00,WeatherDisplay:10.37,2013-10-08 14:53:00,
2013-10-08 10:58:00,56.9,48.0,30.37,SSW,204,0.0,0.0,72,0.00,CLR,,0.00,WeatherDisplay:10.37,2013-10-08 14:58:00,
2013-10-08 11:03:00,57.7,48.4,30.37,SE,127,1.2,0.0,71,0.00,CLR,,0.00,WeatherDisplay:10.37,2013-10-08 15:03:00,
2013-10-08 11:08:00,58.4,47.9,30.37,SE,142,3.5,3.5,68,0.00,CLR,,0.00,WeatherDisplay:10.37,2013-10-08 15:08:00,
2013-10-08 11:13:00,59.0,48.1,30.37,NE,56,3.5,3.5,67,0.00,CLR,,0.00,WeatherDisplay:10.37,2013-10-08 15:13:00,
2013-10-08 11:18:00,59.1,47.3,30.37,NE,51,3.5,3.5,65,0.00,CLR,,0.00,WeatherDisplay:10.37,2013-10-08 15:18:00,
2013-10-08 11:23:00,59.7,48.3,30.37,NNE,32,3.5,3.5,66,0.00,CLR,,0.00,WeatherDisplay:10.37,2013-10-08 15:23:00,
2013-10-08 11:28:00,60.0,49.0,30.37,NE,53,1.2,1.2,67,0.00,CLR,,0.00,WeatherDisplay:10.37,2013-10-08 15:28:00,
2013-10-08 11:33:00,60.5,48.3,30.37,SE,133,3.5,3.5,64,0.00,CLR,,0.00,WeatherDisplay:10.37,2013-10-08 15:33:00,
2013-10-08 11:38:00,60.9,49.1,30.38,NNE,22,4.0,4.0,65,0.00,CLR,,0.00,WeatherDisplay:10.37,2013-10-08 15:38:00,
2013-10-08 11:43:00,61.3,49.0,30.38,WSW,237,1.2,0.0,64,0.00,CLR,,0.00,WeatherDisplay:10.37,2013-10-08 15:43:00,
2013-10-08 11:48:00,61.5,48.4,30.38,North,11,6.0,6.0,62,0.00,CLR,,0.00,WeatherDisplay:10.37,2013-10-08 15:48:00,
2013-10-08 11:53:00,61.6,48.0,30.38,NNE,17,4.0,4.0,61,0.00,CLR,,0.00,WeatherDisplay:10.37,2013-10-08 15:53:00,
2013-10-08 11:58:00,61.4,47.4,30.38,ENE,78,3.5,3.5,60,0.00,CLR,,0.00,WeatherDisplay:10.37,2013-10-08 15:58:00,
2013-10-08 12:03:00,61.2,47.2,30.38,ESE,119,1.2,1.2,60,0.00,CLR,,0.00,WeatherDisplay:10.37,2013-10-08 16:03:00,
2013-10-08 12:08:00,61.0,47.0,30.38,NNE,26,4.0,4.0,60,0.00,CLR,,0.00,WeatherDisplay:10.37,2013-10-08 16:08:00,
2013-10-08 12:13:00,60.5,46.5,30.38,NNE,33,3.5,3.5,60,0.00,CLR,,0.00,WeatherDisplay:10.37,2013-10-08 16:13:00,
2013-10-08 12:18:00,59.9,46.4,30.38,NE,48,0.0,0.0,61,0.00,CLR,,0.00,WeatherDisplay:10.37,2013-10-08 16:18:00,
2013-10-08 12:23:00,59.8,47.2,30.38,NE,47,3.0,3.0,63,0.00,CLR,,0.00,WeatherDisplay:10.37,2013-10-08 16:23:00,
2013-10-08 12:28:00,60.3,48.1,30.37,NE,44,2.3,2.3,64,0.00,CLR,,0.00,WeatherDisplay:10.37,2013-10-08 16:28:00,
2013-10-08 12:33:00,60.5,46.5,30.37,NNE,32,6.9,6.9,60,0.00,CLR,,0.00,WeatherDisplay:10.37,2013-10-08 16:33:00,
2013-10-08 12:38:00,60.9,46.5,30.37,NNE,29,5.0,5.0,59,0.00,CLR,,0.00,WeatherDisplay:10.37,2013-10-08 16:38:00,
2013-10-08 12:43:00,61.5,46.6,30.37,NE,50,5.0,5.0,58,0.00,CLR,,0.00,WeatherDisplay:10.37,2013-10-08 16:43:00,
2013-10-08 12:48:00,62.1,46.7,30.37,East,83,3.5,3.5,57,0.00,CLR,,0.00,WeatherDisplay:10.37,2013-10-08 16:48:00,
2013-10-08 12:53:00,62.4,46.5,30.37,ENE,60,1.2,0.0,56,0.00,CLR,,0.00,WeatherDisplay:10.37,2013-10-08 16:53:00,
2013-10-08 12:58:00,62.8,46.9,30.37,NE,44,4.0,4.0,56,0.00,CLR,,0.00,WeatherDisplay:10.37,2013-10-08 16:58:00,
2013-10-08 13:03:00,63.5,48.5,30.36,South,178,3.5,3.5,58,0.00,CLR,,0.00,WeatherDisplay:10.37,2013-10-08 17:03:00,
2013-10-08 13:08:00,64.0,47.5,30.36,ENE,63,3.5,3.5,55,0.00,CLR,,0.00,WeatherDisplay:10.37,2013-10-08 17:08:00,
2013-10-08 13:13:00,64.0,46.5,30.36,NNW,342,5.8,5.8,53,0.00,CLR,,0.00,WeatherDisplay:10.37,2013-10-08 17:13:00,
2013-10-08 13:18:00,64.0,48.5,30.36,SE,134,5.8,5.8,57,0.00,CLR,,0.00,WeatherDisplay:10.37,2013-10-08 17:18:00,
2013-10-08 13:23:00,64.1,47.1,30.35,NNE,28,6.0,6.0,54,0.00,CLR,,0.00,WeatherDisplay:10.37,2013-10-08 17:23:00,
2013-10-08 13:28:00,64.0,46.0,30.35,East,79,5.8,5.8,52,0.00,CLR,,0.00,WeatherDisplay:10.37,2013-10-08 17:28:00,
2013-10-08 13:33:00,64.0,46.0,30.35,South,184,3.5,3.5,52,0.00,CLR,,0.00,WeatherDisplay:10.37,2013-10-08 17:33:00,
2013-10-08 13:38:00,64.1,45.6,30.35,NW,321,2.3,2.3,51,0.00,CLR,,0.00,WeatherDisplay:10.37,2013-10-08 17:38:00,
2013-10-08 13:43:00,64.2,47.2,30.34,NNE,21,6.0,6.0,54,0.00,CLR,,0.00,WeatherDisplay:10.37,2013-10-08 17:43:00,
2013-10-08 13:48:00,64.1,46.6,30.35,NNE,19,4.6,4.6,53,0.00,CLR,,0.00,WeatherDisplay:10.37,2013-10-08 17:48:00,
2013-10-08 13:53:00,63.9,45.9,30.34,North,5,4.0,4.0,52,0.00,CLR,,0.00,WeatherDisplay:10.37,2013-10-08 17:53:00,
2013-10-08 13:58:00,63.7,45.7,30.34,ENE,63,4.0,4.0,52,0.00,CLR,,0.00,WeatherDisplay:10.37,2013-10-08 17:58:00,
2013-10-08 14:03:00,63.7,45.7,30.34,ENE,76,3.5,3.5,52,0.00,CLR,,0.00,WeatherDisplay:10.37,2013-10-08 18:03:00,
2013-10-08 14:08:00,64.0,46.5,30.34,NNE,13,2.3,2.3,53,0.00,CLR,,0.00,WeatherDisplay:10.37,2013-10-08 18:08:00,
2013-10-08 14:13:00,64.3,45.8,30.34,North,355,4.0,4.0,51,0.00,CLR,,0.00,WeatherDisplay:10.37,2013-10-08 18:13:00,
2013-10-08 14:18:00,64.7,46.7,30.34,NNE,26,4.0,4.0,52,0.00,CLR,,0.00,WeatherDisplay:10.37,2013-10-08 18:18:00,
2013-10-08 14:23:00,64.8,45.7,30.34,ENE,72,5.0,5.0,50,0.00,CLR,,0.00,WeatherDisplay:10.37,2013-10-08 18:23:00,
2013-10-08 14:28:00,65.0,45.9,30.34,NE,48,3.5,3.5,50,0.00,CLR,,0.00,WeatherDisplay:10.37,2013-10-08 18:28:00,
2013-10-08 14:33:00,65.2,46.1,30.34,NNE,17,1.2,1.2,50,0.00,CLR,,0.00,WeatherDisplay:10.37,2013-10-08 18:33:00,
2013-10-08 14:38:00,65.5,46.9,30.34,SE,134,1.2,1.2,51,0.00,CLR,,0.00,WeatherDisplay:10.37,2013-10-08 18:38:00,
2013-10-08 14:43:00,65.8,46.6,30.34,NNE,25,4.0,4.0,50,0.00,CLR,,0.00,WeatherDisplay:10.37,2013-10-08 18:43:00,
2013-10-08 14:48:00,66.0,45.7,30.33,NNE,21,5.0,5.0,48,0.00,CLR,,0.00,WeatherDisplay:10.37,2013-10-08 18:48:00,
2013-10-08 14:53:00,66.1,46.9,30.33,North,360,2.3,0.0,50,0.00,CLR,,0.00,WeatherDisplay:10.37,2013-10-08 18:53:00,
2013-10-08 14:58:00,66.1,46.9,30.33,NE,42,3.5,3.5,50,0.00,CLR,,0.00,WeatherDisplay:10.37,2013-10-08 18:58:00,
2013-10-08 15:03:00,66.2,45.4,30.33,NNE,18,5.0,5.0,47,0.00,CLR,,0.00,WeatherDisplay:10.37,2013-10-08 19:03:00,
2013-10-08 15:08:00,66.3,46.6,30.33,NE,40,4.6,4.6,49,0.00,CLR,,0.00,WeatherDisplay:10.37,2013-10-08 19:08:00,
2013-10-08 15:13:00,66.3,47.6,30.33,East,92,2.3,2.3,51,0.00,CLR,,0.00,WeatherDisplay:10.37,2013-10-08 19:13:00,
2013-10-08 15:18:00,66.5,48.3,30.33,NE,37,3.5,3.5,52,0.00,CLR,,0.00,WeatherDisplay:10.37,2013-10-08 19:18:00,
2013-10-08 15:23:00,66.6,47.4,30.33,NE,44,4.0,4.0,50,0.00,CLR,,0.00,WeatherDisplay:10.37,2013-10-08 19:23:00,
2013-10-08 15:28:00,66.5,46.7,30.33,NE,43,5.0,5.0,49,0.00,CLR,,0.00,WeatherDisplay:10.37,2013-10-08 19:28:00,
2013-10-08 15:33:00,66.3,46.0,30.32,ENE,57,1.2,1.2,48,0.00,CLR,,0.00,WeatherDisplay:10.37,2013-10-08 19:33:00,
2013-10-08 15:38:00,66.3,46.6,30.32,North,9,3.5,3.5,49,0.00,CLR,,0.00,WeatherDisplay:10.37,2013-10-08 19:38:00,
2013-10-08 15:43:00,66.5,46.2,30.32,ENE,60,4.0,4.0,48,0.00,CLR,,0.00,WeatherDisplay:10.37,2013-10-08 19:43:00,
2013-10-08 15:48:00,66.5,45.6,30.32,NNE,30,5.0,5.0,47,0.00,CLR,,0.00,WeatherDisplay:10.37,2013-10-08 19:48:00,
2013-10-08 15:53:00,66.3,44.9,30.32,NNE,24,3.5,3.5,46,0.00,CLR,,0.00,WeatherDisplay:10.37,2013-10-08 19:53:00,
2013-10-08 15:58:00,66.3,46.0,30.31,North,9,6.0,6.0,48,0.00,CLR,,0.00,WeatherDisplay:10.37,2013-10-08 19:58:00,
2013-10-08 16:03:00,66.2,45.9,30.31,North,360,3.5,3.5,48,0.00,CLR,,0.00,WeatherDisplay:10.37,2013-10-08 20:03:00,
2013-10-08 16:08:00,66.2,45.9,30.31,NNE,24,5.0,5.0,48,0.00,CLR,,0.00,WeatherDisplay:10.37,2013-10-08 20:08:00,
2013-10-08 16:13:00,66.1,45.8,30.31,NNE,26,5.0,5.0,48,0.00,CLR,,0.00,WeatherDisplay:10.37,2013-10-08 20:13:00,
2013-10-08 16:18:00,66.0,45.7,30.31,ESE,105,3.5,3.5,48,0.00,CLR,,0.00,WeatherDisplay:10.37,2013-10-08 20:18:00,
2013-10-08 16:23:00,66.0,45.7,30.31,NE,37,6.0,6.0,48,0.00,CLR,,0.00,WeatherDisplay:10.37,2013-10-08 20:23:00,
2013-10-08 16:28:00,65.8,46.1,30.31,ENE,69,2.3,2.3,49,0.00,CLR,,0.00,WeatherDisplay:10.37,2013-10-08 20:28:00,
2013-10-08 16:33:00,65.8,45.6,30.31,North,355,4.0,4.0,48,0.00,CLR,,0.00,WeatherDisplay:10.37,2013-10-08 20:33:00,
2013-10-08 16:38:00,65.7,45.5,30.31,NNE,30,0.0,0.0,48,0.00,CLR,,0.00,WeatherDisplay:10.37,2013-10-08 20:38:00,
2013-10-08 16:43:00,65.6,45.4,30.31,North,9,1.2,0.0,48,0.00,CLR,,0.00,WeatherDisplay:10.37,2013-10-08 20:43:00,
2013-10-08 16:48:00,65.3,45.6,30.31,NNE,28,4.0,4.0,49,0.00,CLR,,0.00,WeatherDisplay:10.37,2013-10-08 20:48:00,
2013-10-08 16:53:00,65.1,45.5,30.31,NNE,32,4.6,4.6,49,0.00,CLR,,0.00,WeatherDisplay:10.37,2013-10-08 20:53:00,
2013-10-08 16:58:00,64.7,45.6,30.31,NNE,26,4.0,4.0,50,0.00,CLR,,0.00,WeatherDisplay:10.37,2013-10-08 20:58:00,
2013-10-08 17:03:00,64.2,44.6,30.31,North,9,3.5,3.5,49,0.00,CLR,,0.00,WeatherDisplay:10.37,2013-10-08 21:03:00,
2013-10-08 17:08:00,63.8,44.8,30.31,NNE,29,6.0,6.0,50,0.00,CLR,,0.00,WeatherDisplay:10.37,2013-10-08 21:08:00,
2013-10-08 17:13:00,63.3,44.3,30.31,NNE,32,3.5,3.5,50,0.00,CLR,,0.00,WeatherDisplay:10.37,2013-10-08 21:13:00,
2013-10-08 17:18:00,63.0,44.6,30.31,NE,40,1.0,0.0,51,0.00,CLR,,0.00,WeatherDisplay:10.37,2013-10-08 21:18:00,
2013-10-08 17:23:00,62.8,44.4,30.32,NNE,21,2.3,2.3,51,0.00,CLR,,0.00,WeatherDisplay:10.37,2013-10-08 21:23:00,
2013-10-08 17:28:00,62.7,44.8,30.32,NNE,21,1.2,0.0,52,0.00,CLR,,0.00,WeatherDisplay:10.37,2013-10-08 21:28:00,
2013-10-08 17:33:00,62.6,44.7,30.32,East,91,5.0,5.0,52,0.00,CLR,,0.00,WeatherDisplay:10.37,2013-10-08 21:33:00,
2013-10-08 17:38:00,62.5,44.1,30.32,ESE,118,1.2,0.0,51,0.00,CLR,,0.00,WeatherDisplay:10.37,2013-10-08 21:38:00,
2013-10-08 17:43:00,62.4,44.5,30.32,South,183,0.0,0.0,52,0.00,CLR,,0.00,WeatherDisplay:10.37,2013-10-08 21:43:00,
2013-10-08 17:48:00,62.4,45.0,30.32,NE,36,2.0,2.0,53,0.00,CLR,,0.00,WeatherDisplay:10.37,2013-10-08 21:48:00,
2013-10-08 17:53:00,62.2,44.9,30.32,NNE,32,3.0,3.0,53,0.00,CLR,,0.00,WeatherDisplay:10.37,2013-10-08 21:53:00,
2013-10-08 17:58:00,62.0,44.7,30.32,NNE,32,0.0,0.0,53,0.00,CLR,,0.00,WeatherDisplay:10.37,2013-10-08 21:58:00,
2013-10-08 18:03:00,61.8,44.5,30.32,NNE,32,0.0,0.0,53,0.00,CLR,,0.00,WeatherDisplay:10.37,2013-10-08 22:03:00,
2013-10-08 18:08:00,61.7,44.4,30.32,NNE,26,2.3,0.0,53,0.00,CLR,,0.00,WeatherDisplay:10.37,2013-10-08 22:08:00,
2013-10-08 18:13:00,61.5,44.2,30.32,NNE,26,0.0,0.0,53,0.00,CLR,,0.00,WeatherDisplay:10.37,2013-10-08 22:13:00,
2013-10-08 18:18:00,61.3,44.5,30.32,NNE,26,0.0,0.0,54,0.00,CLR,,0.00,WeatherDisplay:10.37,2013-10-08 22:18:00,
2013-10-08 18:23:00,61.1,44.3,30.32,NNE,26,0.0,0.0,54,0.00,CLR,,0.00,WeatherDisplay:10.37,2013-10-08 22:23:00,
2013-10-08 18:28:00,60.9,44.1,30.32,NNE,26,0.0,0.0,54,0.00,CLR,,0.00,WeatherDisplay:10.37,2013-10-08 22:28:00,
2013-10-08 18:33:00,60.8,44.0,30.32,NNE,26,0.0,0.0,54,0.00,CLR,,0.00,WeatherDisplay:10.37,2013-10-08 22:33:00,
2013-10-08 18:38:00,60.6,44.3,30.33,NNE,26,0.0,0.0,55,0.00,CLR,,0.00,WeatherDisplay:10.37,2013-10-08 22:38:00,
2013-10-08 18:43:00,60.5,44.2,30.33,NNE,26,0.0,0.0,55,0.00,CLR,,0.00,WeatherDisplay:10.37,2013-10-08 22:43:00,
2013-10-08 18:48:00,60.3,44.1,30.33,NNE,26,0.0,0.0,55,0.00,CLR,,0.00,WeatherDisplay:10.37,2013-10-08 22:48:00,
2013-10-08 18:53:00,60.1,44.3,30.32,NNE,25,0.0,0.0,56,0.00,CLR,,0.00,WeatherDisplay:10.37,2013-10-08 22:53:00,
2013-10-08 18:58:00,59.9,44.2,30.33,NNE,25,0.0,0.0,56,0.00,CLR,,0.00,WeatherDisplay:10.37,2013-10-08 22:58:00,
2013-10-08 19:03:00,59.6,43.9,30.32,NNE,26,0.0,0.0,56,0.00,CLR,,0.00,WeatherDisplay:10.37,2013-10-08 23:03:00,
2013-10-08 19:08:00,59.5,43.8,30.32,NNE,25,0.0,0.0,56,0.00,CLR,,0.00,WeatherDisplay:10.37,2013-10-08 23:08:00,
2013-10-08 19:13:00,59.1,43.4,30.32,NNE,26,0.0,0.0,56,0.00,CLR,,0.00,WeatherDisplay:10.37,2013-10-08 23:13:00,
2013-10-08 19:18:00,59.0,43.8,30.32,NNE,26,1.0,0.0,57,0.00,CLR,,0.00,WeatherDisplay:10.37,2013-10-08 23:18:00,
2013-10-08 19:23:00,59.0,43.8,30.32,NNE,26,1.0,0.0,57,0.00,CLR,,0.00,WeatherDisplay:10.37,2013-10-08 23:23:00,
2013-10-08 19:28:00,59.0,43.8,30.32,NNE,26,1.2,0.0,57,0.00,CLR,,0.00,WeatherDisplay:10.37,2013-10-08 23:28:00,
2013-10-08 19:33:00,59.0,43.8,30.32,NNE,26,2.3,2.3,57,0.00,CLR,,0.00,WeatherDisplay:10.37,2013-10-08 23:33:00,
2013-10-08 19:38:00,59.0,44.2,30.31,NNE,32,4.0,4.0,58,0.00,CLR,,0.00,WeatherDisplay:10.37,2013-10-08 23:38:00,
2013-10-08 19:43:00,58.6,43.4,30.32,NNE,32,3.5,3.5,57,0.00,CLR,,0.00,WeatherDisplay:10.37,2013-10-08 23:43:00,
2013-10-08 19:48:00,58.5,43.8,30.31,NNE,32,3.5,3.5,58,0.00,CLR,,0.00,WeatherDisplay:10.37,2013-10-08 23:48:00,
2013-10-08 19:53:00,58.2,43.5,30.32,NNE,33,4.0,4.0,58,0.00,CLR,,0.00,WeatherDisplay:10.37,2013-10-08 23:53:00,
2013-10-08 19:58:00,58.0,43.7,30.31,NE,39,4.0,4.0,59,0.00,CLR,,0.00,WeatherDisplay:10.37,2013-10-08 23:58:00,
2013-10-08 20:03:00,58.0,43.7,30.32,NE,38,4.0,4.0,59,0.00,CLR,,0.00,WeatherDisplay:10.37,2013-10-09 00:03:00,
2013-10-08 20:08:00,58.0,43.7,30.32,NNE,24,5.0,5.0,59,0.00,CLR,,0.00,WeatherDisplay:10.37,2013-10-09 00:08:00,
2013-10-08 20:13:00,58.0,43.3,30.32,NNE,28,4.0,4.0,58,0.00,CLR,,0.00,WeatherDisplay:10.37,2013-10-09 00:13:00,
2013-10-08 20:18:00,58.0,43.3,30.32,NE,39,3.5,3.5,58,0.00,CLR,,0.00,WeatherDisplay:10.37,2013-10-09 00:18:00,
2013-10-08 20:23:00,57.9,43.7,30.32,NE,38,3.5,3.5,59,0.00,CLR,,0.00,WeatherDisplay:10.37,2013-10-09 00:23:00,
2013-10-08 20:28:00,57.9,43.2,30.32,NE,37,2.3,2.3,58,0.00,CLR,,0.00,WeatherDisplay:10.37,2013-10-09 00:28:00,
2013-10-08 20:33:00,57.8,43.1,30.32,NE,37,3.5,3.5,58,0.00,CLR,,0.00,WeatherDisplay:10.37,2013-10-09 00:33:00,
2013-10-08 20:38:00,57.8,43.1,30.32,ENE,59,3.5,3.5,58,0.00,CLR,,0.00,WeatherDisplay:10.37,2013-10-09 00:38:00,
2013-10-08 20:43:00,57.7,43.0,30.32,NE,51,3.5,3.5,58,0.00,CLR,,0.00,WeatherDisplay:10.37,2013-10-09 00:43:00,
2013-10-08 20:48:00,57.6,43.4,30.33,NE,51,3.5,3.5,59,0.00,CLR,,0.00,WeatherDisplay:10.37,2013-10-09 00:48:00,
2013-10-08 20:53:00,57.4,43.2,30.33,NE,51,3.5,3.5,59,0.00,CLR,,0.00,WeatherDisplay:10.37,2013-10-09 00:53:00,
2013-10-08 20:58:00,57.2,43.4,30.33,NE,51,2.3,2.3,60,0.00,CLR,,0.00,WeatherDisplay:10.37,2013-10-09 00:58:00,
2013-10-08 21:03:00,56.9,43.2,30.33,NE,51,2.3,2.3,60,0.00,CLR,,0.00,WeatherDisplay:10.37,2013-10-09 01:03:00,
2013-10-08 21:08:00,56.7,43.4,30.33,NE,51,3.5,3.5,61,0.00,CLR,,0.00,WeatherDisplay:10.37,2013-10-09 01:08:00,
2013-10-08 21:13:00,56.5,43.6,30.33,NE,51,1.2,0.0,62,0.00,CLR,,0.00,WeatherDisplay:10.37,2013-10-09 01:13:00,
2013-10-08 21:18:00,56.2,43.3,30.33,NE,51,0.0,0.0,62,0.00,CLR,,0.00,WeatherDisplay:10.37,2013-10-09 01:18:00,
2013-10-08 21:23:00,56.0,43.2,30.33,NE,51,3.0,3.0,62,0.00,CLR,,0.00,WeatherDisplay:10.37,2013-10-09 01:23:00,
2013-10-08 21:28:00,55.9,43.1,30.33,NE,51,3.5,3.5,62,0.00,CLR,,0.00,WeatherDisplay:10.37,2013-10-09 01:28:00,
2013-10-08 21:33:00,55.9,43.1,30.33,NE,51,1.2,0.0,62,0.00,CLR,,0.00,WeatherDisplay:10.37,2013-10-09 01:33:00,
2013-10-08 21:38:00,56.0,43.2,30.34,NE,51,2.3,2.3,62,0.00,CLR,,0.00,WeatherDisplay:10.37,2013-10-09 01:38:00,
2013-10-08 21:43:00,56.0,43.6,30.34,NE,51,1.2,0.0,63,0.00,CLR,,0.00,WeatherDisplay:10.37,2013-10-09 01:43:00,
2013-10-08 21:48:00,55.9,43.1,30.34,NE,51,0.0,0.0,62,0.00,CLR,,0.00,WeatherDisplay:10.37,2013-10-09 01:48:00,
2013-10-08 21:53:00,55.9,43.5,30.34,NE,51,0.0,0.0,63,0.00,CLR,,0.00,WeatherDisplay:10.37,2013-10-09 01:53:00,
2013-10-08 21:58:00,55.8,43.4,30.34,NE,51,1.2,1.2,63,0.00,CLR,,0.00,WeatherDisplay:10.37,2013-10-09 01:58:00,
2013-10-08 22:03:00,55.7,43.3,30.34,NE,51,0.0,0.0,63,0.00,CLR,,0.00,WeatherDisplay:10.37,2013-10-09 02:03:00,
2013-10-08 22:08:00,55.6,43.2,30.34,NE,51,0.0,0.0,63,0.00,CLR,,0.00,WeatherDisplay:10.37,2013-10-09 02:08:00,
2013-10-08 22:13:00,55.5,43.5,30.34,NE,51,1.2,0.0,64,0.00,CLR,,0.00,WeatherDisplay:10.37,2013-10-09 02:13:00,
2013-10-08 22:18:00,55.3,43.3,30.34,NE,51,1.2,0.0,64,0.00,CLR,,0.00,WeatherDisplay:10.37,2013-10-09 02:18:00,
2013-10-08 22:23:00,55.3,43.3,30.35,NE,51,0.0,0.0,64,0.00,CLR,,0.00,WeatherDisplay:10.37,2013-10-09 02:23:00,
2013-10-08 22:28:00,55.1,43.1,30.34,NE,51,0.0,0.0,64,0.00,CLR,,0.00,WeatherDisplay:10.37,2013-10-09 02:28:00,
2013-10-08 22:33:00,55.0,43.0,30.35,NE,51,0.0,0.0,64,0.00,CLR,,0.00,WeatherDisplay:10.37,2013-10-09 02:33:00,
2013-10-08 22:38:00,54.9,42.9,30.35,NE,51,1.2,0.0,64,0.00,CLR,,0.00,WeatherDisplay:10.37,2013-10-09 02:38:00,
2013-10-08 22:43:00,54.9,42.9,30.35,NE,51,0.0,0.0,64,0.00,CLR,,0.00,WeatherDisplay:10.37,2013-10-09 02:43:00,
2013-10-08 22:48:00,54.7,42.8,30.35,East,95,0.0,0.0,64,0.00,CLR,,0.00,WeatherDisplay:10.37,2013-10-09 02:48:00,
2013-10-08 22:53:00,54.6,43.1,30.35,SSE,153,3.0,3.0,65,0.00,CLR,,0.00,WeatherDisplay:10.37,2013-10-09 02:53:00,
2013-10-08 22:58:00,54.6,43.1,30.35,SE,135,1.0,0.0,65,0.00,CLR,,0.00,WeatherDisplay:10.37,2013-10-09 02:58:00,
2013-10-08 23:03:00,54.5,43.0,30.35,SE,134,0.0,0.0,65,0.00,CLR,,0.00,WeatherDisplay:10.37,2013-10-09 03:03:00,
2013-10-08 23:08:00,54.4,43.3,30.35,SE,134,0.0,0.0,66,0.00,CLR,,0.00,WeatherDisplay:10.37,2013-10-09 03:08:00,
2013-10-08 23:13:00,54.2,43.1,30.35,SE,135,1.2,0.0,66,0.00,CLR,,0.00,WeatherDisplay:10.37,2013-10-09 03:13:00,
2013-10-08 23:18:00,53.9,43.2,30.34,SE,134,0.0,0.0,67,0.00,CLR,,0.00,WeatherDisplay:10.37,2013-10-09 03:18:00,
2013-10-08 23:23:00,53.6,42.9,30.34,SE,134,0.0,0.0,67,0.00,CLR,,0.00,WeatherDisplay:10.37,2013-10-09 03:23:00,
2013-10-08 23:28:00,53.2,42.9,30.34,SE,135,0.0,0.0,68,0.00,CLR,,0.00,WeatherDisplay:10.37,2013-10-09 03:28:00,
2013-10-08 23:33:00,53.0,42.7,30.35,SE,134,0.0,0.0,68,0.00,CLR,,0.00,WeatherDisplay:10.37,2013-10-09 03:33:00,
2013-10-08 23:38:00,52.8,42.9,30.34,SE,134,0.0,0.0,69,0.00,CLR,,0.00,WeatherDisplay:10.37,2013-10-09 03:38:00,
2013-10-08 23:43:00,52.6,42.7,30.35,SE,135,0.0,0.0,69,0.00,CLR,,0.00,WeatherDisplay:10.37,2013-10-09 03:43:00,
2013-10-08 23:48:00,52.4,42.5,30.35,SE,134,0.0,0.0,69,0.00,CLR,,0.00,WeatherDisplay:10.37,2013-10-09 03:48:00,
2013-10-08 23:53:00,52.3,42.8,30.35,SE,135,0.0,0.0,70,0.00,CLR,,0.00,WeatherDisplay:10.37,2013-10-09 03:53:00,
2013-10-08 23:58:00,52.0,42.5,30.35,SE,135,0.0,0.0,70,0.00,CLR,,0.00,WeatherDisplay:10.37,2013-10-09 03:58:00,